Denison, Illinois
Current Conditions -  °F | °C
As of 9:35 PM on Monday 22 Dec 2014 (Local Time) from KAJG Reporting Station
Light Rain Light Rain  
Wind Chill: 52°   Ceiling: 1600
Heat Index: 52°   Visibility: 5mi
Dew Point: 46°   Wind: 14mph
Humidity: 82%   Direction: 160°SSE
Pressure: 29.62"   Gusts: NA
Location:  38.6278°N, 87.6942°W
Report Text: KAJG 230335Z AUTO 16012KT 5SM -RA SCT011 BKN016 OVC060 11/08 A2962 RMK AO2
Loading
Personal Weather Stations






























Interactive Weather Map New forecast layout! Learn more

10-Day Weather Forecast

Advertisements
Track Severe Weather on mobile